Archival Weather

Norman Y Mineta San Jose Intl

San Jose, California (KSJC)

Report from: Thursday, February 8, 2024 5:53 PM PST
Current time: Friday, June 14, 2024 4:56 AM PDT

Current weather – Weather history – Daily summaries
Weather forecast

Temperature11.7°C (53.1°F)
Dew point5.6°C (42.1°F)
Winds 6 kts (3.1 m/s, 6.9 mph) Northwest (320°)
Visibility10 mi. (16.1 km)
Clouds Few clouds 3,000 ft. (914 m)
Scattered clouds 4,500 ft. (1,372 m)
Altimeter30.04 in.Hg (1017 mB)
Relative humidity66 %
Density altitude-394 ft. (-120 m)
Sea-level pressure101.7 kPa (1017 mB, 30.04 in.Hg)
Remarks Automated weather observing station with precipitation discriminator
Flight conditions Visual Meteorological Conditions
Raw dataKSJC 090153Z 32006KT 10SM FEW030 SCT045 12/06 A3004 RMK AO2 SLP172 T01170056
An error has occurred. This application may no longer respond until reloaded. Reload 🗙